Leting, China
Current Conditions -  °F | °C
As of 8:30 AM on Thursday 23 Oct 2014 (Local Time) from ZBTJ Reporting Station
Haze Haze  
Wind Chill: 59°   Ceiling: Unl
Heat Index: 59°   Visibility: 0.93mi
Dew Point: 50°   Wind: 2mph
Humidity: 72%   Direction: 230°SW
Pressure: 30.03"   Gusts: NA
Location:  39.43°N, 118.9°E
Report Text: ZBTJ 230030Z 23001MPS 1500 BR NSC 15/10 Q1017 NOSIG
Loading
Personal Weather Stations






























Interactive Weather Map
Tropical Storm Tracking
New forecast layout! Learn more

10-Day Weather Forecast

Advertisements
Track Severe Weather on mobile